Time;durP1;ratioP1;P1;durP2;ratioP2;P2;SDS_P1;SDS_P2;PMS_P1;PMS_P2;Temp;Humidity;BMP_temperature;BMP_pressure;BME280_temperature;BME280_humidity;BME280_pressure;Samples;Min_cycle;Max_cycle;Signal;HPM_P1;HPM_P2
2021/04/10 00:00:21;;;;;;;14.80;9.10;;;7.80;99.90;;;6.28;88.45;100838.09;3492632;40;104375;-40
2021/04/10 00:02:51;;;;;;;15.50;10.05;;;7.80;99.90;;;6.26;88.44;100840.13;3508700;40;103653;-40
2021/04/10 00:05:24;;;;;;;12.73;9.30;;;7.80;99.90;;;6.24;88.08;100826.78;3508619;40;102397;-40
2021/04/10 00:07:52;;;;;;;13.50;8.93;;;7.80;99.90;;;6.24;88.13;100825.94;3516931;40;102841;-40
2021/04/10 00:10:23;;;;;;;13.57;8.88;;;7.80;99.90;;;6.22;88.21;100822.56;3507928;40;103408;-41
2021/04/10 00:12:50;;;;;;;13.30;9.18;;;7.80;99.90;;;6.21;88.88;100823.59;3509279;40;102387;-40
2021/04/10 00:15:19;;;;;;;13.10;9.27;;;7.70;99.90;;;6.18;88.65;100822.94;3500380;40;104016;-40
2021/04/10 00:17:47;;;;;;;14.27;9.52;;;7.70;99.90;;;6.17;88.37;100814.97;3500626;40;103394;-40
2021/04/10 00:20:19;;;;;;;12.88;8.00;;;7.70;99.90;;;6.15;88.98;100814.31;3500414;40;104189;-40
2021/04/10 00:22:48;;;;;;;12.00;8.50;;;7.70;99.90;;;6.12;88.90;100829.09;3508293;40;102388;-40
2021/04/10 00:25:17;;;;;;;14.18;9.00;;;7.60;99.90;;;6.12;89.01;100833.66;3500122;40;104090;-40
2021/04/10 00:27:46;;;;;;;13.93;9.55;;;7.70;99.90;;;6.11;88.36;100842.81;3516596;40;102465;-40
2021/04/10 00:30:17;;;;;;;16.35;10.40;;;7.70;99.90;;;6.11;88.90;100842.81;3508877;40;104089;-40
2021/04/10 00:32:44;;;;;;;15.90;10.48;;;7.70;99.90;;;6.12;89.00;100845.34;3508346;40;102725;-40
2021/04/10 00:35:13;;;;;;;15.57;9.40;;;7.70;99.90;;;6.10;88.85;100846.53;3516291;40;103213;-40
2021/04/10 00:37:40;;;;;;;13.15;9.23;;;7.60;99.90;;;6.09;89.33;100851.09;3508580;40;103327;-40
2021/04/10 00:40:09;;;;;;;15.17;9.80;;;7.70;99.90;;;6.09;89.36;100850.28;3500611;40;103140;-40
2021/04/10 00:42:38;;;;;;;14.25;9.25;;;7.60;99.90;;;6.07;89.44;100853.16;3516806;40;103182;-40
2021/04/10 00:45:09;;;;;;;16.30;10.68;;;7.60;99.90;;;6.08;89.38;100854.00;3508186;40;103125;-40
2021/04/10 00:47:37;;;;;;;15.73;9.68;;;7.60;99.90;;;6.07;89.39;100849.63;3509469;40;104065;-40
2021/04/10 00:50:07;;;;;;;14.48;9.75;;;7.60;99.90;;;6.07;89.56;100849.63;3508375;40;103169;-40
2021/04/10 00:52:37;;;;;;;13.45;9.18;;;7.60;99.90;;;6.07;89.51;100845.03;3508694;40;104280;-40
2021/04/10 00:55:07;;;;;;;17.08;10.23;;;7.60;99.90;;;6.06;89.57;100843.34;3651579;22;103488;-39
2021/04/10 00:57:35;;;;;;;16.02;9.30;;;7.60;99.90;;;6.07;89.84;100847.75;3510448;40;103141;-39
2021/04/10 01:00:07;;;;;;;16.55;10.02;;;7.60;99.90;;;6.03;89.72;100841.88;3518529;40;104036;-39
2021/04/10 01:02:37;;;;;;;15.15;9.55;;;7.60;99.90;;;6.07;89.84;100836.91;3518993;40;102117;-39
2021/04/10 01:05:07;;;;;;;15.27;10.15;;;7.60;99.90;;;6.06;90.04;100840.63;3508541;40;102811;-39
2021/04/10 01:07:35;;;;;;;16.70;10.05;;;7.60;99.90;;;6.06;89.74;100847.94;3500686;40;102876;-39
2021/04/10 01:10:03;;;;;;;;;;;7.60;99.90;;;6.06;90.13;100843.34;3500917;40;105062;-39
2021/04/10 01:12:43;;;;;;;13.43;9.77;;;7.60;99.90;;;6.06;89.83;100846.06;3508915;40;102418;-39
2021/04/10 01:15:30;;;;;;;14.97;9.60;;;7.60;99.90;;;6.07;90.28;100836.91;3500700;40;104164;-39
2021/04/10 01:18:10;;;;;;;16.35;10.77;;;7.60;99.90;;;6.03;90.54;100827.47;3516876;40;102343;-39
2021/04/10 01:21:08;;;;;;;17.67;10.30;;;7.60;99.90;;;6.08;90.56;100837.75;3509152;40;102285;-39
2021/04/10 01:24:05;;;;;;;14.90;9.35;;;7.60;99.90;;;6.07;90.34;100838.78;3510180;40;102252;-39
2021/04/10 01:27:00;;;;;;;14.63;9.93;;;7.60;99.90;;;6.07;90.98;100841.50;3508677;40;102179;-39
2021/04/10 01:29:32;;;;;;;13.90;10.35;;;7.60;99.90;;;6.06;90.64;100840.63;3508778;40;102493;-39
2021/04/10 01:32:02;;;;;;;16.73;10.63;;;7.60;99.90;;;6.04;90.73;100826.44;3516637;40;103088;-41
2021/04/10 01:34:52;;;;;;;15.82;10.90;;;7.60;99.90;;;6.03;90.23;100836.44;3500431;40;102203;-41
2021/04/10 01:37:29;;;;;;;15.77;10.40;;;7.60;99.90;;;6.03;90.78;100833.75;3500433;40;102422;-41
2021/04/10 01:40:01;;;;;;;16.75;11.10;;;7.60;99.90;;;6.03;90.77;100843.72;3508082;40;104350;-41
2021/04/10 01:42:32;;;;;;;15.98;10.90;;;7.60;99.90;;;6.02;90.83;100840.19;3501027;40;103303;-41
2021/04/10 01:45:02;;;;;;;19.30;11.80;;;7.60;99.90;;;6.02;90.49;100840.19;3508251;40;102344;-41
2021/04/10 01:47:36;;;;;;;17.33;11.25;;;7.60;99.90;;;6.02;91.01;100845.59;3508907;40;102293;-41
2021/04/10 01:50:06;;;;;;;15.93;10.45;;;7.60;99.90;;;6.03;91.09;100838.31;3516810;40;102411;-41
2021/04/10 01:52:34;;;;;;;15.45;10.93;;;7.60;99.90;;;6.04;91.16;100837.28;3508586;40;103287;-39
2021/04/10 01:55:06;;;;;;;14.23;10.35;;;7.60;99.90;;;6.03;91.37;100832.88;3499978;40;102418;-39
2021/04/10 01:57:42;;;;;;;16.92;11.80;;;7.60;99.90;;;6.03;91.00;100830.19;3501138;40;103330;-39
2021/04/10 02:00:18;;;;;;;17.15;11.27;;;7.60;99.90;;;6.02;91.24;100831.19;3500466;40;102841;-39
2021/04/10 02:02:54;;;;;;;15.88;10.55;;;7.60;99.90;;;6.01;91.26;100852.03;3493790;40;102447;-39
2021/04/10 02:05:27;;;;;;;17.05;11.52;;;7.60;99.90;;;6.00;91.15;100844.06;3516384;40;102551;-41
2021/04/10 02:08:10;;;;;;;14.60;10.50;;;7.50;99.90;;;6.00;91.62;100838.63;3501636;40;102164;-41
2021/04/10 02:10:41;;;;;;;16.45;11.00;;;7.50;99.90;;;5.99;91.05;100842.38;3507444;40;104502;-41
2021/04/10 02:13:21;;;;;;;14.70;10.13;;;7.60;99.90;;;5.97;91.01;100836.28;3501308;40;102282;-39
2021/04/10 02:15:51;;;;;;;17.27;11.07;;;7.50;99.90;;;5.97;91.42;100847.13;3508334;40;102832;-41
2021/04/10 02:18:28;;;;;;;18.98;12.43;;;7.50;99.90;;;5.98;91.71;100844.25;3500727;40;102176;-39
2021/04/10 02:21:08;;;;;;;18.23;10.98;;;7.50;99.90;;;5.98;91.56;100830.72;3508473;40;102486;-39
2021/04/10 02:23:46;;;;;;;16.27;12.02;;;7.50;99.90;;;5.98;91.67;100829.84;3509342;40;103301;-39
2021/04/10 02:26:21;;;;;;;18.42;11.93;;;7.50;99.90;;;5.97;91.14;100830.88;3493300;40;102510;-39
2021/04/10 02:28:49;;;;;;;19.05;12.27;;;7.50;99.90;;;5.94;91.97;100826.66;3508402;40;103268;-39
2021/04/10 02:31:43;;;;;;;19.67;11.98;;;7.50;99.90;;;5.92;91.38;100817.03;3492651;40;102580;-39
2021/04/10 02:34:19;;;;;;;16.77;11.70;;;7.50;99.90;;;5.88;91.62;100817.41;3500293;40;102399;-39
2021/04/10 02:36:52;;;;;;;19.95;13.50;;;7.40;99.90;;;5.86;92.08;100821.31;3508247;40;102384;-39
2021/04/10 02:39:25;;;;;;;22.88;13.45;;;7.40;99.90;;;5.83;91.50;100830.63;3500568;40;102393;-41
2021/04/10 02:42:01;;;;;;;19.15;12.38;;;7.40;99.90;;;5.80;91.52;100836.41;3516502;40;102531;-41
2021/04/10 02:44:47;;;;;;;19.30;13.38;;;7.40;99.90;;;5.80;91.38;100841.81;3500231;40;102697;-39
2021/04/10 02:47:23;;;;;;;19.17;12.55;;;7.40;99.90;;;5.77;92.23;100842.19;3508359;40;102484;-39
2021/04/10 02:49:57;;;;;;;18.10;11.57;;;7.40;99.90;;;5.77;91.85;100844.91;3499570;40;102678;-39
2021/04/10 02:52:38;;;;;;;17.23;11.82;;;7.30;99.90;;;5.74;91.63;100843.41;3500922;40;102316;-41
2021/04/10 02:55:10;;;;;;;17.85;12.07;;;7.30;99.90;;;5.72;91.43;100850.00;3508576;40;102368;-41
2021/04/10 02:57:41;;;;;;;17.50;11.93;;;7.30;99.90;;;5.70;91.17;100846.66;3508248;40;104365;-41
2021/04/10 03:00:16;;;;;;;17.80;11.68;;;7.30;99.90;;;5.68;90.81;100849.53;3500149;40;102207;-41
2021/04/10 03:02:47;;;;;;;18.88;12.00;;;7.20;99.90;;;5.68;91.35;100851.41;3509406;40;102189;-39
2021/04/10 03:05:19;;;;;;;17.83;12.05;;;7.20;99.90;;;5.67;91.62;100847.84;3500321;40;104385;-39
2021/04/10 03:07:52;;;;;;;17.55;12.05;;;7.20;99.90;;;5.68;91.08;100854.09;3508012;40;102378;-41
2021/04/10 03:10:27;;;;;;;19.58;12.57;;;7.20;99.90;;;5.67;90.86;100850.53;3507816;40;104314;-41
2021/04/10 03:12:57;;;;;;;17.83;12.25;;;7.20;99.90;;;5.67;91.39;100855.97;3500570;40;102155;-41
2021/04/10 03:15:31;;;;;;;18.35;12.15;;;7.20;99.90;;;5.66;91.55;100856.97;3507941;40;102310;-41
2021/04/10 03:17:59;;;;;;;18.85;12.75;;;7.20;99.90;;;5.66;91.36;100862.41;3500156;40;102417;-39
2021/04/10 03:20:31;;;;;;;22.92;14.20;;;7.20;99.90;;;5.66;91.35;100872.41;3492503;40;104159;-39
2021/04/10 03:23:03;;;;;;;19.83;12.75;;;7.20;99.90;;;5.68;92.00;100873.06;3508069;40;102648;-39
2021/04/10 03:25:39;;;;;;;18.80;12.55;;;7.20;99.90;;;5.68;92.15;100867.66;3507850;40;102427;-39
2021/04/10 03:28:10;;;;;;;17.50;12.00;;;7.20;99.90;;;5.69;92.19;100863.91;3499323;40;102434;-39
2021/04/10 03:30:42;;;;;;;19.15;12.38;;;7.30;99.90;;;5.66;92.11;100878.63;3507904;40;103202;-39
2021/04/10 03:33:17;;;;;;;18.25;12.07;;;7.20;99.90;;;5.67;92.00;100885.75;3507772;40;102393;-38
2021/04/10 03:35:46;;;;;;;17.52;11.63;;;7.20;99.90;;;5.66;91.38;100869.69;3491619;40;104387;-39
2021/04/10 03:38:15;;;;;;;23.38;13.38;;;7.20;99.90;;;5.66;91.85;100872.41;3492503;40;102321;-41
2021/04/10 03:40:43;;;;;;;;;;;7.20;99.90;;;5.65;91.95;100862.59;3500627;40;103332;-41
2021/04/10 03:43:11;;;;;;;20.25;12.88;;;7.20;99.90;;;5.64;91.78;100866.31;3507483;40;102920;-41
2021/04/10 03:45:47;;;;;;;21.55;14.27;;;7.20;99.90;;;5.64;91.54;100869.84;3492806;40;102196;-41
2021/04/10 03:48:23;;;;;;;21.05;12.85;;;7.20;99.90;;;5.63;91.75;100870.88;3500223;40;102943;-41
2021/04/10 03:50:57;;;;;;;19.30;12.90;;;7.20;99.90;;;5.63;92.19;100872.75;3500123;40;104532;-39
2021/04/10 03:53:27;;;;;;;18.63;12.90;;;7.20;99.90;;;5.61;91.75;100871.06;3499677;40;104527;-38
2021/04/10 03:56:01;;;;;;;20.00;13.02;;;7.20;99.90;;;5.62;91.95;100871.91;3500044;40;102614;-39
2021/04/10 03:58:31;;;;;;;19.65;13.10;;;7.20;99.90;;;5.59;92.18;100867.69;3499998;40;102421;-39
2021/04/10 04:00:59;;;;;;;22.83;13.80;;;7.20;99.90;;;5.59;91.77;100875.81;3491804;40;104654;-39
2021/04/10 04:03:26;;;;;;;22.43;14.17;;;7.10;99.90;;;5.60;92.07;100882.91;3500432;40;102408;-38
2021/04/10 04:05:53;;;;;;;28.03;15.57;;;7.20;99.90;;;5.61;92.02;100875.63;3500853;40;104004;-39
2021/04/10 04:08:20;;;;;;;23.53;13.80;;;7.20;99.90;;;5.60;91.51;100882.91;3491999;40;103464;-38
2021/04/10 04:10:48;;;;;;;21.30;12.70;;;7.20;99.90;;;5.60;91.67;100887.47;3492781;40;105377;-39
2021/04/10 04:13:15;;;;;;;27.73;14.57;;;7.10;99.90;;;5.55;92.12;100882.59;3500791;40;103304;-38
2021/04/10 04:15:42;;;;;;;23.83;15.07;;;7.10;99.90;;;5.59;92.48;100896.63;3492460;40;102397;-39
2021/04/10 04:18:10;;;;;;;21.47;13.93;;;7.10;99.90;;;5.59;92.45;100900.19;3492772;40;103407;-39
2021/04/10 18:23:37;;;;;;;8.98;6.18;;;9.60;99.90;;;8.04;100.00;100456.13;3568855;39;102024;-38
2021/04/10 18:26:11;;;;;;;12.43;7.25;;;9.60;99.90;;;8.05;100.00;100436.88;3555698;39;102452;-39
2021/04/10 18:28:38;;;;;;;12.32;7.43;;;9.60;99.90;;;8.12;100.00;100442.34;3555955;39;103249;-39
2021/04/10 18:31:07;;;;;;;10.82;6.85;;;9.60;99.90;;;8.11;100.00;100440.66;3546665;39;102445;-40
2021/04/10 18:33:38;;;;;;;10.93;7.55;;;9.60;99.90;;;8.11;100.00;100440.66;3546196;39;103275;-39
2021/04/10 18:36:12;;;;;;;12.00;7.40;;;9.60;99.90;;;8.09;100.00;100431.03;3664480;22;102428;-40
2021/04/10 18:38:40;;;;;;;11.55;7.50;;;9.60;99.90;;;8.12;100.00;100436.09;3530592;39;103602;-40
2021/04/10 18:41:07;;;;;;;12.00;7.50;;;9.60;99.90;;;8.18;100.00;100437.97;3518851;39;102968;-40
2021/04/10 18:43:38;;;;;;;12.30;7.60;;;9.70;99.90;;;8.17;100.00;100437.13;3526559;39;104096;-40
2021/04/10 18:46:07;;;;;;;11.75;7.03;;;9.70;99.90;;;8.20;100.00;100438.59;3527630;39;102590;-40
2021/04/10 18:48:35;;;;;;;11.35;7.43;;;9.70;99.90;;;8.20;100.00;100442.13;3536653;39;102309;-40
2021/04/10 18:51:04;;;;;;;;;;;9.70;99.90;;;8.19;100.00;100440.47;3546591;39;102459;-40
2021/04/10 18:53:34;;;;;;;9.60;6.63;;;9.70;99.90;;;8.23;100.00;100437.38;3536612;39;102545;-40
2021/04/10 18:56:06;;;;;;;11.05;7.30;;;9.70;99.90;;;8.23;100.00;100435.47;3536921;39;102281;-40
2021/04/10 18:58:33;;;;;;;13.38;7.30;;;9.70;99.90;;;8.12;100.00;100422.50;3528277;39;104904;-40
2021/04/10 19:01:02;;;;;;;8.77;6.00;;;9.70;99.90;;;8.18;100.00;100438.78;3528524;39;102398;-41
2021/04/10 19:03:32;;;;;;;10.65;6.70;;;9.70;99.90;;;8.19;100.00;100431.50;3536473;39;102565;-40
2021/04/10 19:06:00;;;;;;;9.68;6.10;;;9.70;99.90;;;8.17;100.00;100433.59;3536601;39;104926;-40
2021/04/10 19:08:28;;;;;;;10.55;6.30;;;9.70;99.90;;;8.21;100.00;100438.38;3536469;39;103030;-40
2021/04/10 19:10:59;;;;;;;9.70;6.28;;;9.70;99.90;;;8.21;100.00;100432.94;3545592;39;102834;-40
2021/04/10 19:13:32;;;;;;;10.32;6.20;;;9.70;99.90;;;8.12;100.00;100417.88;3536980;39;104095;-40
2021/04/10 19:16:01;;;;;;;9.88;6.30;;;9.70;99.90;;;8.22;100.00;100441.94;3536477;39;102340;-40
2021/04/10 19:18:28;;;;;;;10.45;6.03;;;9.70;99.90;;;8.18;100.00;100436.06;3545619;39;105038;-40
2021/04/10 19:20:56;;;;;;;8.80;5.73;;;9.70;99.90;;;8.24;100.00;100437.13;3527974;39;102512;-40
2021/04/10 19:23:25;;;;;;;7.72;5.22;;;9.80;99.90;;;8.26;100.00;100434.22;3536655;39;102297;-40
2021/04/10 19:25:56;;;;;;;7.22;5.05;;;9.80;99.90;;;8.27;100.00;100435.91;3528329;39;102409;-40
2021/04/10 19:28:25;;;;;;;8.98;5.95;;;9.70;99.90;;;8.26;100.00;100431.50;3528179;39;102313;-40
2021/04/10 19:30:53;;;;;;;8.88;5.57;;;9.80;99.90;;;8.26;100.00;100426.06;3536314;39;102789;-41
2021/04/10 19:33:23;;;;;;;;;;;9.70;99.90;;;8.30;100.00;100428.16;3533832;39;102383;-40
2021/04/10 19:35:55;;;;;;;8.70;4.97;;;9.80;99.90;;;8.31;100.00;100429.00;3530790;39;102733;-40
2021/04/10 19:38:25;;;;;;;7.45;4.80;;;9.80;99.90;;;8.33;100.00;100421.47;3521852;39;102822;-40
2021/04/10 19:40:56;;;;;;;7.03;4.78;;;9.80;99.90;;;8.30;100.00;100427.34;3539151;39;102276;-40
2021/04/10 19:43:30;;;;;;;7.95;5.22;;;9.80;99.90;;;8.35;100.00;100422.09;3538755;39;105131;-40
2021/04/10 19:46:13;;;;;;;7.05;4.55;;;9.80;99.90;;;8.37;100.00;100421.91;3529888;39;103864;-41
2021/04/10 19:48:44;;;;;;;8.60;5.38;;;9.80;99.90;;;8.42;100.00;100419.41;3529755;39;104575;-40
2021/04/10 19:51:12;;;;;;;7.93;5.20;;;9.80;99.90;;;8.44;100.00;100417.31;3522746;39;102390;-41
2021/04/10 19:53:39;;;;;;;;;;;9.90;99.90;;;8.42;100.00;100420.22;3539257;39;102357;-40
2021/04/10 19:56:09;;;;;;;6.50;4.32;;;9.90;99.90;;;8.44;100.00;100428.19;3539113;39;102687;-40
2021/04/10 19:58:45;;;;;;;6.20;4.20;;;9.90;99.90;;;8.44;99.79;100414.59;3529728;39;102197;-40
2021/04/10 20:01:19;;;;;;;6.88;4.63;;;9.90;99.90;;;8.47;99.56;100417.72;3529793;39;102368;-40
2021/04/10 20:03:48;;;;;;;7.85;4.47;;;9.90;99.90;;;8.43;99.32;100418.34;3538916;39;103364;-41
2021/04/10 20:06:18;;;;;;;7.47;4.13;;;9.90;99.90;;;8.44;99.02;100417.31;3529864;39;102556;-41
2021/04/10 20:08:48;;;;;;;6.45;4.45;;;9.90;99.90;;;8.51;98.08;100422.78;3520578;39;104059;-40
2021/04/10 20:11:18;;;;;;;6.55;4.30;;;10.00;99.90;;;8.47;98.29;100411.44;3529716;39;102479;-40
2021/04/10 20:13:47;;;;;;;6.88;4.18;;;9.90;99.90;;;8.44;98.47;100409.97;3538847;39;103293;-40
2021/04/10 20:16:15;;;;;;;6.60;4.10;;;9.90;99.90;;;8.42;98.30;100403.91;3529778;39;102477;-40
2021/04/10 20:18:43;;;;;;;6.47;4.18;;;9.90;99.90;;;8.35;98.08;100379.47;3529981;39;102186;-40
2021/04/10 20:21:11;;;;;;;7.23;4.43;;;9.90;99.90;;;8.46;98.38;100404.34;3538180;39;102454;-40
2021/04/10 20:23:41;;;;;;;;;;;9.90;99.90;;;8.48;98.01;100396.81;3530657;39;103997;-40
2021/04/10 20:26:16;;;;;;;6.20;4.38;;;9.90;99.90;;;8.47;97.80;100397.84;3539102;39;102737;-41
2021/04/10 20:28:46;;;;;;;6.65;4.30;;;9.90;99.90;;;8.49;97.41;100401.19;3530027;39;103114;-40
2021/04/10 20:31:16;;;;;;;8.73;3.92;;;9.90;99.90;;;8.52;97.13;100397.28;3522153;39;103161;-40
2021/04/10 20:33:48;;;;;;;7.28;4.43;;;10.00;99.90;;;8.48;97.29;100394.09;3538929;39;102139;-40
2021/04/10 20:36:15;;;;;;;8.27;4.50;;;9.90;99.90;;;8.46;97.11;100388.84;3521495;39;103927;-40
2021/04/10 20:38:47;;;;;;;6.68;4.35;;;9.90;99.90;;;8.52;97.28;100389.94;3529519;39;103969;-41
2021/04/10 20:41:16;;;;;;;7.72;4.47;;;9.90;99.90;;;8.48;97.06;100389.47;3529675;39;102283;-41
2021/04/10 20:43:44;;;;;;;6.38;4.05;;;9.90;99.90;;;8.46;96.94;100388.84;3529267;39;103176;-40
2021/04/10 20:46:11;;;;;;;8.00;4.70;;;9.90;99.90;;;8.49;96.86;100388.50;3520726;39;102260;-41
2021/04/10 20:48:38;;;;;;;7.83;4.57;;;10.00;99.90;;;8.48;96.48;100388.66;3538571;39;104054;-41
2021/04/10 20:51:06;;;;;;;7.43;4.45;;;9.90;99.90;;;8.53;96.56;100383.44;3521354;39;102335;-41
2021/04/10 20:53:33;;;;;;;;;;;10.00;99.90;;;8.48;96.24;100375.06;3539536;39;103081;-40
2021/04/10 20:56:01;;;;;;;6.55;3.90;;;10.00;99.90;;;8.43;96.37;100381.13;3529737;39;102151;-41
2021/04/10 20:58:28;;;;;;;7.88;4.53;;;9.90;99.90;;;8.44;96.29;100382.78;3521277;39;103211;-41
2021/04/10 21:00:55;;;;;;;6.85;4.70;;;9.90;99.90;;;8.46;95.95;100374.44;3521635;39;102295;-40
2021/04/10 21:03:25;;;;;;;5.77;4.00;;;10.00;99.90;;;8.49;96.17;100372.19;3504820;39;104081;-41
2021/04/10 21:05:55;;;;;;;7.72;4.22;;;9.90;99.90;;;8.49;96.06;100377.63;3539568;39;103331;-40
2021/04/10 21:08:24;;;;;;;7.32;4.50;;;10.00;99.90;;;8.51;95.49;100377.38;3520788;39;103318;-40
2021/04/10 21:10:54;;;;;;;8.55;4.75;;;10.00;99.90;;;8.51;95.68;100379.28;3529703;39;102540;-40
2021/04/10 21:13:25;;;;;;;7.05;4.95;;;10.00;99.90;;;8.49;95.72;100382.16;3512991;39;102263;-40
2021/04/10 21:15:53;;;;;;;6.82;4.40;;;9.90;99.90;;;8.47;95.67;100376.09;3529410;39;102345;-40
2021/04/10 21:18:20;;;;;;;7.30;4.43;;;9.90;99.90;;;8.52;95.54;100376.34;3529643;39;102447;-40
2021/04/10 21:20:52;;;;;;;8.68;4.78;;;10.00;99.90;;;8.52;95.58;100376.34;3521854;39;102534;-40
2021/04/10 21:23:25;;;;;;;6.65;4.50;;;10.00;99.90;;;8.48;95.35;100373.16;3521265;39;102300;-40
2021/04/10 21:25:53;;;;;;;8.10;4.63;;;10.00;99.90;;;8.48;95.40;100378.59;3539139;39;103372;-40
2021/04/10 21:28:21;;;;;;;10.25;5.00;;;9.90;99.90;;;8.50;95.29;100378.44;3521451;39;103152;-40
2021/04/10 21:30:48;;;;;;;8.55;4.85;;;10.00;99.90;;;8.46;95.41;100379.88;3521418;39;103444;-40
2021/04/10 21:33:16;;;;;;;9.37;5.00;;;9.90;99.90;;;8.51;95.48;100393.69;3520770;39;105357;-40
2021/04/10 21:35:43;;;;;;;7.38;4.55;;;10.00;99.90;;;8.52;95.34;100389.94;3521314;39;104201;-40
2021/04/10 21:38:11;;;;;;;7.57;4.60;;;10.00;99.90;;;8.51;95.40;100388.25;3513009;39;105733;-40
2021/04/10 21:40:39;;;;;;;9.50;4.63;;;10.00;99.90;;;8.59;95.51;100382.59;3521376;39;103243;-41
2021/04/10 21:43:07;;;;;;;7.18;4.55;;;10.00;99.90;;;8.54;95.09;100381.59;3521273;39;102246;-40
2021/04/10 21:45:35;;;;;;;8.10;4.93;;;10.00;99.90;;;8.51;95.49;100382.81;3520851;39;103522;-40
2021/04/10 21:48:04;;;;;;;7.70;4.80;;;10.00;99.90;;;8.47;95.85;100385.09;3520699;39;102229;-40
